sensor_id;sensor_type;location;lat;lon;timestamp;P1;durP1;ratioP1;P2;durP2;ratioP2
29724;SDS011;16636;48.394;15.468;2022-12-18T00:01:06;5.18;;;3.50;;
29724;SDS011;16636;48.394;15.468;2022-12-18T00:03:53;7.22;;;3.38;;
29724;SDS011;16636;48.394;15.468;2022-12-18T00:06:20;6.22;;;3.08;;
29724;SDS011;16636;48.394;15.468;2022-12-18T00:08:47;8.05;;;4.03;;
29724;SDS011;16636;48.394;15.468;2022-12-18T00:11:15;6.22;;;3.30;;
29724;SDS011;16636;48.394;15.468;2022-12-18T00:13:43;7.97;;;4.13;;
29724;SDS011;16636;48.394;15.468;2022-12-18T00:16:11;9.75;;;3.47;;
29724;SDS011;16636;48.394;15.468;2022-12-18T00:18:40;9.73;;;3.88;;
29724;SDS011;16636;48.394;15.468;2022-12-18T00:21:08;10.32;;;3.65;;
29724;SDS011;16636;48.394;15.468;2022-12-18T00:23:36;7.75;;;3.70;;
29724;SDS011;16636;48.394;15.468;2022-12-18T00:26:04;9.88;;;3.63;;
29724;SDS011;16636;48.394;15.468;2022-12-18T00:28:32;5.95;;;3.33;;
29724;SDS011;16636;48.394;15.468;2022-12-18T00:31:09;8.55;;;4.00;;
29724;SDS011;16636;48.394;15.468;2022-12-18T00:33:37;7.43;;;3.75;;
29724;SDS011;16636;48.394;15.468;2022-12-18T00:36:13;5.10;;;2.97;;
29724;SDS011;16636;48.394;15.468;2022-12-18T00:38:41;7.43;;;3.83;;
29724;SDS011;16636;48.394;15.468;2022-12-18T00:41:08;6.65;;;3.10;;
29724;SDS011;16636;48.394;15.468;2022-12-18T00:43:36;10.02;;;3.60;;
29724;SDS011;16636;48.394;15.468;2022-12-18T00:46:03;7.65;;;3.65;;
29724;SDS011;16636;48.394;15.468;2022-12-18T00:48:31;5.35;;;2.50;;
29724;SDS011;16636;48.394;15.468;2022-12-18T00:50:58;7.05;;;3.28;;
29724;SDS011;16636;48.394;15.468;2022-12-18T00:53:23;6.38;;;3.10;;
29724;SDS011;16636;48.394;15.468;2022-12-18T00:55:50;5.25;;;2.85;;
29724;SDS011;16636;48.394;15.468;2022-12-18T00:58:16;7.40;;;3.30;;
29724;SDS011;16636;48.394;15.468;2022-12-18T01:00:42;5.18;;;3.05;;
29724;SDS011;16636;48.394;15.468;2022-12-18T01:03:11;7.70;;;3.70;;
29724;SDS011;16636;48.394;15.468;2022-12-18T01:05:40;6.53;;;3.30;;
29724;SDS011;16636;48.394;15.468;2022-12-18T01:08:06;6.97;;;3.25;;
29724;SDS011;16636;48.394;15.468;2022-12-18T01:10:32;4.32;;;2.80;;
29724;SDS011;16636;48.394;15.468;2022-12-18T01:12:58;6.13;;;3.35;;
29724;SDS011;16636;48.394;15.468;2022-12-18T01:15:24;10.55;;;3.53;;
29724;SDS011;16636;48.394;15.468;2022-12-18T01:17:52;4.72;;;2.97;;
29724;SDS011;16636;48.394;15.468;2022-12-18T01:20:18;8.57;;;3.50;;
29724;SDS011;16636;48.394;15.468;2022-12-18T01:22:44;6.10;;;3.08;;
29724;SDS011;16636;48.394;15.468;2022-12-18T01:25:10;8.15;;;3.00;;
29724;SDS011;16636;48.394;15.468;2022-12-18T01:27:36;6.05;;;3.53;;
29724;SDS011;16636;48.394;15.468;2022-12-18T01:30:03;4.63;;;2.45;;
29724;SDS011;16636;48.394;15.468;2022-12-18T01:32:30;10.27;;;3.58;;
29724;SDS011;16636;48.394;15.468;2022-12-18T01:34:57;5.40;;;2.65;;
29724;SDS011;16636;48.394;15.468;2022-12-18T01:37:23;7.20;;;3.83;;
29724;SDS011;16636;48.394;15.468;2022-12-18T01:39:49;6.72;;;3.63;;
29724;SDS011;16636;48.394;15.468;2022-12-18T01:42:18;4.05;;;2.72;;
29724;SDS011;16636;48.394;15.468;2022-12-18T01:47:47;4.72;;;2.88;;
29724;SDS011;16636;48.394;15.468;2022-12-18T01:52:45;6.72;;;2.85;;
29724;SDS011;16636;48.394;15.468;2022-12-18T01:55:19;6.68;;;3.10;;
29724;SDS011;16636;48.394;15.468;2022-12-18T01:57:49;5.03;;;2.70;;
29724;SDS011;16636;48.394;15.468;2022-12-18T02:00:20;7.68;;;3.30;;
29724;SDS011;16636;48.394;15.468;2022-12-18T02:02:50;6.22;;;3.17;;
29724;SDS011;16636;48.394;15.468;2022-12-18T02:05:22;6.05;;;2.97;;
29724;SDS011;16636;48.394;15.468;2022-12-18T02:11:01;8.75;;;3.42;;
29724;SDS011;16636;48.394;15.468;2022-12-18T02:14:08;5.53;;;2.67;;
29724;SDS011;16636;48.394;15.468;2022-12-18T02:19:40;4.55;;;2.83;;
29724;SDS011;16636;48.394;15.468;2022-12-18T02:28:19;6.63;;;2.47;;
29724;SDS011;16636;48.394;15.468;2022-12-18T02:30:50;7.18;;;2.63;;
29724;SDS011;16636;48.394;15.468;2022-12-18T02:33:19;8.10;;;3.05;;
29724;SDS011;16636;48.394;15.468;2022-12-18T02:35:46;5.88;;;2.78;;
29724;SDS011;16636;48.394;15.468;2022-12-18T02:38:13;7.13;;;2.95;;
29724;SDS011;16636;48.394;15.468;2022-12-18T02:40:44;4.60;;;2.40;;
29724;SDS011;16636;48.394;15.468;2022-12-18T02:43:15;8.13;;;2.92;;
29724;SDS011;16636;48.394;15.468;2022-12-18T02:45:49;5.65;;;2.75;;
29724;SDS011;16636;48.394;15.468;2022-12-18T02:48:22;5.82;;;2.92;;
29724;SDS011;16636;48.394;15.468;2022-12-18T02:51:03;4.13;;;2.58;;
29724;SDS011;16636;48.394;15.468;2022-12-18T02:53:57;4.93;;;2.55;;
29724;SDS011;16636;48.394;15.468;2022-12-18T02:56:35;5.10;;;2.85;;
29724;SDS011;16636;48.394;15.468;2022-12-18T02:59:25;5.03;;;2.47;;
29724;SDS011;16636;48.394;15.468;2022-12-18T03:02:17;5.55;;;2.33;;
29724;SDS011;16636;48.394;15.468;2022-12-18T03:07:36;5.65;;;2.53;;
29724;SDS011;16636;48.394;15.468;2022-12-18T03:10:13;4.85;;;2.65;;
29724;SDS011;16636;48.394;15.468;2022-12-18T03:12:47;5.95;;;3.15;;
29724;SDS011;16636;48.394;15.468;2022-12-18T03:15:29;5.30;;;2.67;;
29724;SDS011;16636;48.394;15.468;2022-12-18T03:18:07;8.95;;;3.15;;
29724;SDS011;16636;48.394;15.468;2022-12-18T03:20:41;5.32;;;2.72;;
29724;SDS011;16636;48.394;15.468;2022-12-18T03:23:19;4.40;;;1.85;;
29724;SDS011;16636;48.394;15.468;2022-12-18T03:25:52;5.10;;;2.92;;
29724;SDS011;16636;48.394;15.468;2022-12-18T03:28:24;5.28;;;2.75;;
29724;SDS011;16636;48.394;15.468;2022-12-18T03:30:59;6.05;;;2.50;;
29724;SDS011;16636;48.394;15.468;2022-12-18T03:33:38;5.40;;;2.72;;
29724;SDS011;16636;48.394;15.468;2022-12-18T03:36:27;4.68;;;2.35;;
29724;SDS011;16636;48.394;15.468;2022-12-18T03:38:53;10.68;;;2.80;;
29724;SDS011;16636;48.394;15.468;2022-12-18T03:41:25;5.70;;;2.58;;
29724;SDS011;16636;48.394;15.468;2022-12-18T03:52:48;4.68;;;2.20;;
29724;SDS011;16636;48.394;15.468;2022-12-18T03:55:19;5.20;;;2.53;;
29724;SDS011;16636;48.394;15.468;2022-12-18T03:57:52;5.53;;;2.35;;
29724;SDS011;16636;48.394;15.468;2022-12-18T04:00:19;6.72;;;2.85;;
29724;SDS011;16636;48.394;15.468;2022-12-18T04:03:01;4.85;;;2.25;;
29724;SDS011;16636;48.394;15.468;2022-12-18T04:05:36;8.68;;;3.13;;
29724;SDS011;16636;48.394;15.468;2022-12-18T04:08:03;6.43;;;2.50;;
29724;SDS011;16636;48.394;15.468;2022-12-18T04:10:33;4.07;;;2.67;;
29724;SDS011;16636;48.394;15.468;2022-12-18T04:13:00;4.43;;;2.88;;
29724;SDS011;16636;48.394;15.468;2022-12-18T04:15:27;5.28;;;2.38;;
29724;SDS011;16636;48.394;15.468;2022-12-18T04:17:54;5.20;;;3.08;;
29724;SDS011;16636;48.394;15.468;2022-12-18T04:20:23;4.95;;;2.65;;
29724;SDS011;16636;48.394;15.468;2022-12-18T04:22:49;3.70;;;1.92;;
29724;SDS011;16636;48.394;15.468;2022-12-18T04:25:18;7.13;;;2.90;;
29724;SDS011;16636;48.394;15.468;2022-12-18T04:27:55;8.52;;;2.67;;
29724;SDS011;16636;48.394;15.468;2022-12-18T04:30:21;4.00;;;2.50;;
29724;SDS011;16636;48.394;15.468;2022-12-18T04:32:48;5.75;;;2.95;;
29724;SDS011;16636;48.394;15.468;2022-12-18T04:35:14;5.45;;;3.35;;
29724;SDS011;16636;48.394;15.468;2022-12-18T04:37:42;5.50;;;2.17;;
29724;SDS011;16636;48.394;15.468;2022-12-18T04:40:09;6.18;;;2.42;;
29724;SDS011;16636;48.394;15.468;2022-12-18T04:42:40;4.22;;;2.20;;
29724;SDS011;16636;48.394;15.468;2022-12-18T04:45:06;5.47;;;2.53;;
29724;SDS011;16636;48.394;15.468;2022-12-18T04:47:33;4.55;;;2.20;;
29724;SDS011;16636;48.394;15.468;2022-12-18T04:49:59;4.93;;;2.30;;
29724;SDS011;16636;48.394;15.468;2022-12-18T04:52:26;6.80;;;2.15;;
29724;SDS011;16636;48.394;15.468;2022-12-18T04:54:52;10.55;;;2.70;;
29724;SDS011;16636;48.394;15.468;2022-12-18T04:57:18;4.78;;;2.65;;
29724;SDS011;16636;48.394;15.468;2022-12-18T04:59:44;6.88;;;3.13;;
29724;SDS011;16636;48.394;15.468;2022-12-18T05:02:10;7.05;;;2.35;;
29724;SDS011;16636;48.394;15.468;2022-12-18T05:04:37;4.07;;;2.42;;
29724;SDS011;16636;48.394;15.468;2022-12-18T05:07:03;5.65;;;2.70;;
29724;SDS011;16636;48.394;15.468;2022-12-18T05:09:29;10.20;;;4.30;;
29724;SDS011;16636;48.394;15.468;2022-12-18T05:11:54;8.90;;;4.10;;
29724;SDS011;16636;48.394;15.468;2022-12-18T05:14:20;11.73;;;4.57;;
29724;SDS011;16636;48.394;15.468;2022-12-18T05:16:46;6.78;;;3.35;;
29724;SDS011;16636;48.394;15.468;2022-12-18T05:19:12;5.60;;;2.88;;
29724;SDS011;16636;48.394;15.468;2022-12-18T05:21:38;5.38;;;2.80;;
29724;SDS011;16636;48.394;15.468;2022-12-18T05:24:05;7.18;;;2.75;;
29724;SDS011;16636;48.394;15.468;2022-12-18T05:26:31;8.02;;;3.45;;
29724;SDS011;16636;48.394;15.468;2022-12-18T05:28:57;7.43;;;3.22;;
29724;SDS011;16636;48.394;15.468;2022-12-18T05:31:23;8.98;;;2.33;;
29724;SDS011;16636;48.394;15.468;2022-12-18T05:33:49;9.00;;;3.42;;
29724;SDS011;16636;48.394;15.468;2022-12-18T05:36:15;8.63;;;4.40;;
29724;SDS011;16636;48.394;15.468;2022-12-18T05:38:41;10.07;;;5.05;;
29724;SDS011;16636;48.394;15.468;2022-12-18T05:41:07;6.95;;;3.20;;
29724;SDS011;16636;48.394;15.468;2022-12-18T05:43:35;5.40;;;3.13;;
29724;SDS011;16636;48.394;15.468;2022-12-18T05:46:12;6.47;;;2.97;;
29724;SDS011;16636;48.394;15.468;2022-12-18T05:48:40;6.78;;;2.80;;
29724;SDS011;16636;48.394;15.468;2022-12-18T05:51:08;10.52;;;2.92;;
29724;SDS011;16636;48.394;15.468;2022-12-18T05:53:39;7.45;;;3.00;;
29724;SDS011;16636;48.394;15.468;2022-12-18T05:56:07;5.28;;;2.47;;
29724;SDS011;16636;48.394;15.468;2022-12-18T05:58:38;7.32;;;2.38;;
29724;SDS011;16636;48.394;15.468;2022-12-18T06:06:12;4.10;;;2.03;;
29724;SDS011;16636;48.394;15.468;2022-12-18T06:08:39;5.22;;;2.97;;
29724;SDS011;16636;48.394;15.468;2022-12-18T06:11:05;3.80;;;2.30;;
29724;SDS011;16636;48.394;15.468;2022-12-18T06:13:31;5.07;;;2.55;;
29724;SDS011;16636;48.394;15.468;2022-12-18T06:15:57;6.65;;;2.95;;
29724;SDS011;16636;48.394;15.468;2022-12-18T06:18:22;3.20;;;2.15;;
29724;SDS011;16636;48.394;15.468;2022-12-18T06:20:58;10.20;;;3.00;;
29724;SDS011;16636;48.394;15.468;2022-12-18T06:23:25;8.25;;;2.75;;
29724;SDS011;16636;48.394;15.468;2022-12-18T06:25:51;4.28;;;2.85;;
29724;SDS011;16636;48.394;15.468;2022-12-18T06:28:18;10.73;;;3.58;;
29724;SDS011;16636;48.394;15.468;2022-12-18T06:30:45;8.75;;;4.38;;
29724;SDS011;16636;48.394;15.468;2022-12-18T06:33:12;12.27;;;3.58;;
29724;SDS011;16636;48.394;15.468;2022-12-18T06:35:38;8.02;;;3.45;;
29724;SDS011;16636;48.394;15.468;2022-12-18T06:38:04;9.07;;;5.18;;
29724;SDS011;16636;48.394;15.468;2022-12-18T06:40:30;12.25;;;6.15;;
29724;SDS011;16636;48.394;15.468;2022-12-18T06:42:57;22.80;;;7.15;;
29724;SDS011;16636;48.394;15.468;2022-12-18T06:45:23;107.50;;;26.25;;
29724;SDS011;16636;48.394;15.468;2022-12-18T06:47:49;134.48;;;29.20;;
29724;SDS011;16636;48.394;15.468;2022-12-18T06:50:16;256.90;;;64.40;;
29724;SDS011;16636;48.394;15.468;2022-12-18T06:52:41;162.02;;;48.88;;
29724;SDS011;16636;48.394;15.468;2022-12-18T06:55:09;31.02;;;13.88;;
29724;SDS011;16636;48.394;15.468;2022-12-18T06:57:37;9.98;;;5.25;;
29724;SDS011;16636;48.394;15.468;2022-12-18T07:00:03;8.02;;;3.30;;
29724;SDS011;16636;48.394;15.468;2022-12-18T07:02:31;13.35;;;3.28;;
29724;SDS011;16636;48.394;15.468;2022-12-18T07:04:57;15.70;;;5.03;;
29724;SDS011;16636;48.394;15.468;2022-12-18T07:07:23;11.65;;;3.63;;
29724;SDS011;16636;48.394;15.468;2022-12-18T07:09:50;11.27;;;5.43;;
29724;SDS011;16636;48.394;15.468;2022-12-18T07:12:16;16.52;;;6.70;;
29724;SDS011;16636;48.394;15.468;2022-12-18T07:14:43;35.53;;;8.50;;
29724;SDS011;16636;48.394;15.468;2022-12-18T07:17:10;19.50;;;9.00;;
29724;SDS011;16636;48.394;15.468;2022-12-18T07:19:36;18.92;;;6.97;;
29724;SDS011;16636;48.394;15.468;2022-12-18T07:22:02;17.20;;;7.53;;
29724;SDS011;16636;48.394;15.468;2022-12-18T07:24:28;20.10;;;7.90;;
29724;SDS011;16636;48.394;15.468;2022-12-18T07:26:54;21.60;;;7.95;;
29724;SDS011;16636;48.394;15.468;2022-12-18T07:29:20;21.08;;;8.00;;
29724;SDS011;16636;48.394;15.468;2022-12-18T07:31:46;27.30;;;12.02;;
29724;SDS011;16636;48.394;15.468;2022-12-18T07:34:12;31.73;;;11.10;;
29724;SDS011;16636;48.394;15.468;2022-12-18T07:36:40;21.88;;;9.05;;
29724;SDS011;16636;48.394;15.468;2022-12-18T07:39:06;14.35;;;6.95;;
29724;SDS011;16636;48.394;15.468;2022-12-18T07:41:32;16.10;;;7.55;;
29724;SDS011;16636;48.394;15.468;2022-12-18T07:46:34;11.85;;;6.13;;
29724;SDS011;16636;48.394;15.468;2022-12-18T07:49:01;17.92;;;6.68;;
29724;SDS011;16636;48.394;15.468;2022-12-18T07:51:27;14.38;;;5.85;;
29724;SDS011;16636;48.394;15.468;2022-12-18T07:53:52;10.23;;;5.90;;
29724;SDS011;16636;48.394;15.468;2022-12-18T07:56:19;11.07;;;6.38;;
29724;SDS011;16636;48.394;15.468;2022-12-18T07:58:45;10.48;;;5.88;;
29724;SDS011;16636;48.394;15.468;2022-12-18T08:01:11;11.27;;;5.20;;
29724;SDS011;16636;48.394;15.468;2022-12-18T08:03:38;10.50;;;4.47;;
29724;SDS011;16636;48.394;15.468;2022-12-18T08:06:06;14.68;;;5.95;;
29724;SDS011;16636;48.394;15.468;2022-12-18T08:08:34;7.65;;;3.88;;
29724;SDS011;16636;48.394;15.468;2022-12-18T08:11:01;15.48;;;5.63;;
29724;SDS011;16636;48.394;15.468;2022-12-18T08:13:28;13.05;;;4.68;;
29724;SDS011;16636;48.394;15.468;2022-12-18T08:15:57;15.23;;;6.00;;
29724;SDS011;16636;48.394;15.468;2022-12-18T08:18:24;15.73;;;7.38;;
29724;SDS011;16636;48.394;15.468;2022-12-18T08:20:50;20.63;;;8.02;;
29724;SDS011;16636;48.394;15.468;2022-12-18T08:23:16;80.40;;;26.88;;
29724;SDS011;16636;48.394;15.468;2022-12-18T08:25:42;75.97;;;23.67;;
29724;SDS011;16636;48.394;15.468;2022-12-18T08:28:09;77.32;;;23.45;;
29724;SDS011;16636;48.394;15.468;2022-12-18T08:30:35;40.28;;;13.43;;
29724;SDS011;16636;48.394;15.468;2022-12-18T08:33:02;24.88;;;10.43;;
29724;SDS011;16636;48.394;15.468;2022-12-18T08:35:29;27.65;;;9.68;;
29724;SDS011;16636;48.394;15.468;2022-12-18T08:37:55;33.83;;;10.25;;
29724;SDS011;16636;48.394;15.468;2022-12-18T08:40:21;30.30;;;11.23;;
29724;SDS011;16636;48.394;15.468;2022-12-18T08:42:47;30.95;;;11.32;;
29724;SDS011;16636;48.394;15.468;2022-12-18T08:45:33;32.15;;;12.27;;
29724;SDS011;16636;48.394;15.468;2022-12-18T08:47:59;69.05;;;21.60;;
29724;SDS011;16636;48.394;15.468;2022-12-18T08:50:25;58.33;;;16.63;;
29724;SDS011;16636;48.394;15.468;2022-12-18T08:52:51;34.80;;;11.45;;
29724;SDS011;16636;48.394;15.468;2022-12-18T08:55:17;28.23;;;10.82;;
29724;SDS011;16636;48.394;15.468;2022-12-18T08:57:47;27.85;;;10.93;;
29724;SDS011;16636;48.394;15.468;2022-12-18T09:00:14;26.65;;;9.82;;
29724;SDS011;16636;48.394;15.468;2022-12-18T09:02:41;30.45;;;11.57;;
29724;SDS011;16636;48.394;15.468;2022-12-18T09:05:07;34.60;;;14.68;;
29724;SDS011;16636;48.394;15.468;2022-12-18T09:07:33;43.38;;;15.35;;
29724;SDS011;16636;48.394;15.468;2022-12-18T09:09:59;18.70;;;9.50;;
29724;SDS011;16636;48.394;15.468;2022-12-18T09:12:25;30.83;;;11.40;;
29724;SDS011;16636;48.394;15.468;2022-12-18T09:14:51;21.45;;;10.15;;
29724;SDS011;16636;48.394;15.468;2022-12-18T09:17:17;17.20;;;8.75;;
29724;SDS011;16636;48.394;15.468;2022-12-18T09:19:43;19.75;;;8.82;;
29724;SDS011;16636;48.394;15.468;2022-12-18T09:22:09;17.85;;;7.38;;
29724;SDS011;16636;48.394;15.468;2022-12-18T09:24:35;22.73;;;8.73;;
29724;SDS011;16636;48.394;15.468;2022-12-18T09:27:01;25.70;;;10.95;;
29724;SDS011;16636;48.394;15.468;2022-12-18T09:29:28;44.90;;;14.55;;
29724;SDS011;16636;48.394;15.468;2022-12-18T09:31:56;31.75;;;11.32;;
29724;SDS011;16636;48.394;15.468;2022-12-18T09:34:22;34.15;;;14.00;;
29724;SDS011;16636;48.394;15.468;2022-12-18T09:36:48;31.50;;;12.00;;
29724;SDS011;16636;48.394;15.468;2022-12-18T09:39:14;29.40;;;12.50;;
29724;SDS011;16636;48.394;15.468;2022-12-18T09:41:47;35.35;;;11.90;;
29724;SDS011;16636;48.394;15.468;2022-12-18T09:47:09;21.65;;;8.43;;
29724;SDS011;16636;48.394;15.468;2022-12-18T09:49:44;20.80;;;8.93;;
29724;SDS011;16636;48.394;15.468;2022-12-18T09:52:17;24.30;;;10.05;;
29724;SDS011;16636;48.394;15.468;2022-12-18T09:55:24;20.55;;;9.50;;
29724;SDS011;16636;48.394;15.468;2022-12-18T09:57:59;31.05;;;12.73;;
29724;SDS011;16636;48.394;15.468;2022-12-18T10:00:30;22.92;;;10.18;;
29724;SDS011;16636;48.394;15.468;2022-12-18T10:03:00;24.45;;;10.18;;
29724;SDS011;16636;48.394;15.468;2022-12-18T10:08:33;24.60;;;10.77;;
29724;SDS011;16636;48.394;15.468;2022-12-18T10:11:33;28.75;;;11.95;;
29724;SDS011;16636;48.394;15.468;2022-12-18T10:14:29;32.07;;;11.53;;
29724;SDS011;16636;48.394;15.468;2022-12-18T10:19:59;40.03;;;12.73;;
29724;SDS011;16636;48.394;15.468;2022-12-18T10:22:58;40.35;;;14.90;;
29724;SDS011;16636;48.394;15.468;2022-12-18T10:28:20;39.75;;;14.20;;
29724;SDS011;16636;48.394;15.468;2022-12-18T10:30:47;26.52;;;11.60;;
29724;SDS011;16636;48.394;15.468;2022-12-18T10:33:13;24.92;;;10.75;;
29724;SDS011;16636;48.394;15.468;2022-12-18T10:35:47;17.00;;;7.70;;
29724;SDS011;16636;48.394;15.468;2022-12-18T10:40:52;27.60;;;10.00;;
29724;SDS011;16636;48.394;15.468;2022-12-18T10:43:27;29.05;;;10.93;;
29724;SDS011;16636;48.394;15.468;2022-12-18T10:48:31;26.65;;;9.63;;
29724;SDS011;16636;48.394;15.468;2022-12-18T10:50:59;29.50;;;11.73;;
29724;SDS011;16636;48.394;15.468;2022-12-18T10:53:26;29.90;;;11.32;;
29724;SDS011;16636;48.394;15.468;2022-12-18T10:55:55;32.22;;;11.85;;
29724;SDS011;16636;48.394;15.468;2022-12-18T10:58:25;28.52;;;10.95;;
29724;SDS011;16636;48.394;15.468;2022-12-18T11:03:41;30.08;;;11.07;;
29724;SDS011;16636;48.394;15.468;2022-12-18T11:06:14;32.58;;;11.05;;
29724;SDS011;16636;48.394;15.468;2022-12-18T11:08:42;30.35;;;10.63;;
29724;SDS011;16636;48.394;15.468;2022-12-18T11:11:22;28.90;;;10.23;;
29724;SDS011;16636;48.394;15.468;2022-12-18T11:16:23;26.60;;;9.90;;
29724;SDS011;16636;48.394;15.468;2022-12-18T11:18:49;29.02;;;10.82;;
29724;SDS011;16636;48.394;15.468;2022-12-18T11:21:15;26.38;;;11.73;;
29724;SDS011;16636;48.394;15.468;2022-12-18T11:23:49;30.15;;;12.02;;
29724;SDS011;16636;48.394;15.468;2022-12-18T11:26:16;26.75;;;10.48;;
29724;SDS011;16636;48.394;15.468;2022-12-18T11:28:50;28.77;;;11.25;;
29724;SDS011;16636;48.394;15.468;2022-12-18T11:31:19;31.33;;;10.77;;
29724;SDS011;16636;48.394;15.468;2022-12-18T11:33:53;32.08;;;10.65;;
29724;SDS011;16636;48.394;15.468;2022-12-18T11:36:32;26.92;;;9.63;;
29724;SDS011;16636;48.394;15.468;2022-12-18T11:39:06;25.15;;;9.73;;
29724;SDS011;16636;48.394;15.468;2022-12-18T11:41:59;31.83;;;11.15;;
29724;SDS011;16636;48.394;15.468;2022-12-18T11:49:52;34.30;;;11.00;;
29724;SDS011;16636;48.394;15.468;2022-12-18T11:52:27;28.55;;;11.05;;
29724;SDS011;16636;48.394;15.468;2022-12-18T11:55:18;29.23;;;11.02;;
29724;SDS011;16636;48.394;15.468;2022-12-18T11:58:06;25.83;;;11.18;;
29724;SDS011;16636;48.394;15.468;2022-12-18T12:00:43;26.30;;;10.85;;
29724;SDS011;16636;48.394;15.468;2022-12-18T12:03:39;30.33;;;10.15;;
29724;SDS011;16636;48.394;15.468;2022-12-18T12:09:01;30.40;;;9.82;;
29724;SDS011;16636;48.394;15.468;2022-12-18T12:11:41;26.38;;;11.27;;
29724;SDS011;16636;48.394;15.468;2022-12-18T12:17:34;14.77;;;6.57;;
29724;SDS011;16636;48.394;15.468;2022-12-18T12:22:54;32.45;;;10.52;;
29724;SDS011;16636;48.394;15.468;2022-12-18T12:25:49;26.10;;;10.65;;
29724;SDS011;16636;48.394;15.468;2022-12-18T12:36:31;24.70;;;9.70;;
29724;SDS011;16636;48.394;15.468;2022-12-18T12:39:20;27.77;;;10.10;;
29724;SDS011;16636;48.394;15.468;2022-12-18T12:41:49;33.40;;;9.88;;
29724;SDS011;16636;48.394;15.468;2022-12-18T12:44:44;29.90;;;12.05;;
29724;SDS011;16636;48.394;15.468;2022-12-18T12:47:26;30.25;;;10.98;;
29724;SDS011;16636;48.394;15.468;2022-12-18T12:49:58;27.90;;;10.10;;
29724;SDS011;16636;48.394;15.468;2022-12-18T12:54:56;27.02;;;10.30;;
29724;SDS011;16636;48.394;15.468;2022-12-18T12:57:26;28.52;;;10.98;;
29724;SDS011;16636;48.394;15.468;2022-12-18T13:05:31;27.65;;;9.48;;
29724;SDS011;16636;48.394;15.468;2022-12-18T13:08:06;29.23;;;10.30;;
29724;SDS011;16636;48.394;15.468;2022-12-18T13:15:48;28.25;;;10.68;;
29724;SDS011;16636;48.394;15.468;2022-12-18T13:18:28;31.05;;;11.90;;
29724;SDS011;16636;48.394;15.468;2022-12-18T13:31:12;35.15;;;13.27;;
29724;SDS011;16636;48.394;15.468;2022-12-18T13:33:47;35.58;;;13.20;;
29724;SDS011;16636;48.394;15.468;2022-12-18T13:36:25;27.45;;;12.20;;
29724;SDS011;16636;48.394;15.468;2022-12-18T13:39:21;35.65;;;13.13;;
29724;SDS011;16636;48.394;15.468;2022-12-18T13:44:40;52.55;;;19.65;;
29724;SDS011;16636;48.394;15.468;2022-12-18T13:47:40;49.17;;;16.83;;
29724;SDS011;16636;48.394;15.468;2022-12-18T13:50:00;31.25;;;13.98;;
29724;SDS011;16636;48.394;15.468;2022-12-18T13:52:36;40.03;;;14.73;;
29724;SDS011;16636;48.394;15.468;2022-12-18T13:55:05;38.88;;;14.40;;
29724;SDS011;16636;48.394;15.468;2022-12-18T13:57:40;37.90;;;13.43;;
29724;SDS011;16636;48.394;15.468;2022-12-18T14:00:40;34.03;;;11.88;;
29724;SDS011;16636;48.394;15.468;2022-12-18T14:02:58;28.17;;;11.05;;
29724;SDS011;16636;48.394;15.468;2022-12-18T14:05:26;37.38;;;13.05;;
29724;SDS011;16636;48.394;15.468;2022-12-18T14:08:00;39.63;;;13.43;;
29724;SDS011;16636;48.394;15.468;2022-12-18T14:10:33;29.73;;;11.40;;
29724;SDS011;16636;48.394;15.468;2022-12-18T14:13:04;35.05;;;13.52;;
29724;SDS011;16636;48.394;15.468;2022-12-18T14:15:39;24.17;;;9.00;;
29724;SDS011;16636;48.394;15.468;2022-12-18T14:20:54;30.60;;;11.85;;
29724;SDS011;16636;48.394;15.468;2022-12-18T14:23:31;39.15;;;11.65;;
29724;SDS011;16636;48.394;15.468;2022-12-18T14:25:57;38.72;;;14.70;;
29724;SDS011;16636;48.394;15.468;2022-12-18T14:28:24;46.40;;;13.68;;
29724;SDS011;16636;48.394;15.468;2022-12-18T14:30:51;35.10;;;13.07;;
29724;SDS011;16636;48.394;15.468;2022-12-18T14:33:19;34.13;;;12.00;;
29724;SDS011;16636;48.394;15.468;2022-12-18T14:36:13;30.15;;;10.60;;
29724;SDS011;16636;48.394;15.468;2022-12-18T14:38:40;31.52;;;12.88;;
29724;SDS011;16636;48.394;15.468;2022-12-18T14:41:10;40.47;;;14.25;;
29724;SDS011;16636;48.394;15.468;2022-12-18T14:43:39;35.53;;;12.82;;
29724;SDS011;16636;48.394;15.468;2022-12-18T14:48:53;36.15;;;13.32;;
29724;SDS011;16636;48.394;15.468;2022-12-18T14:51:24;28.83;;;11.55;;
29724;SDS011;16636;48.394;15.468;2022-12-18T14:53:56;39.67;;;13.82;;
29724;SDS011;16636;48.394;15.468;2022-12-18T14:56:44;42.38;;;14.93;;
29724;SDS011;16636;48.394;15.468;2022-12-18T14:59:19;43.38;;;15.38;;
29724;SDS011;16636;48.394;15.468;2022-12-18T15:04:32;35.35;;;13.30;;
29724;SDS011;16636;48.394;15.468;2022-12-18T15:10:08;45.47;;;16.25;;
29724;SDS011;16636;48.394;15.468;2022-12-18T15:12:41;43.03;;;13.52;;
29724;SDS011;16636;48.394;15.468;2022-12-18T15:18:02;33.80;;;13.23;;
29724;SDS011;16636;48.394;15.468;2022-12-18T15:20:32;43.50;;;13.68;;
29724;SDS011;16636;48.394;15.468;2022-12-18T15:25:40;29.17;;;11.85;;
29724;SDS011;16636;48.394;15.468;2022-12-18T15:28:21;31.70;;;11.48;;
29724;SDS011;16636;48.394;15.468;2022-12-18T15:31:00;29.75;;;10.85;;
29724;SDS011;16636;48.394;15.468;2022-12-18T15:33:30;29.33;;;12.57;;
29724;SDS011;16636;48.394;15.468;2022-12-18T15:36:02;32.97;;;13.95;;
29724;SDS011;16636;48.394;15.468;2022-12-18T15:38:30;31.98;;;11.55;;
29724;SDS011;16636;48.394;15.468;2022-12-18T15:40:57;32.72;;;12.63;;
29724;SDS011;16636;48.394;15.468;2022-12-18T15:43:24;41.20;;;14.23;;
29724;SDS011;16636;48.394;15.468;2022-12-18T15:46:00;31.27;;;11.48;;
29724;SDS011;16636;48.394;15.468;2022-12-18T15:48:28;20.60;;;9.43;;
29724;SDS011;16636;48.394;15.468;2022-12-18T15:50:54;36.78;;;13.77;;
29724;SDS011;16636;48.394;15.468;2022-12-18T15:53:22;28.10;;;12.45;;
29724;SDS011;16636;48.394;15.468;2022-12-18T15:55:54;28.02;;;10.35;;
29724;SDS011;16636;48.394;15.468;2022-12-18T15:58:39;30.88;;;12.07;;
29724;SDS011;16636;48.394;15.468;2022-12-18T16:01:05;29.83;;;11.40;;
29724;SDS011;16636;48.394;15.468;2022-12-18T16:03:34;39.88;;;14.27;;
29724;SDS011;16636;48.394;15.468;2022-12-18T16:06:00;49.30;;;14.02;;
29724;SDS011;16636;48.394;15.468;2022-12-18T16:08:30;36.22;;;12.10;;
29724;SDS011;16636;48.394;15.468;2022-12-18T16:10:56;42.20;;;15.13;;
29724;SDS011;16636;48.394;15.468;2022-12-18T16:13:23;32.38;;;13.73;;
29724;SDS011;16636;48.394;15.468;2022-12-18T16:15:49;29.42;;;11.15;;
29724;SDS011;16636;48.394;15.468;2022-12-18T16:18:15;34.33;;;13.30;;
29724;SDS011;16636;48.394;15.468;2022-12-18T16:20:42;47.08;;;16.30;;
29724;SDS011;16636;48.394;15.468;2022-12-18T16:23:08;30.42;;;12.55;;
29724;SDS011;16636;48.394;15.468;2022-12-18T16:25:33;40.45;;;14.80;;
29724;SDS011;16636;48.394;15.468;2022-12-18T16:27:59;40.17;;;13.95;;
29724;SDS011;16636;48.394;15.468;2022-12-18T16:30:30;39.92;;;14.43;;
29724;SDS011;16636;48.394;15.468;2022-12-18T16:32:57;34.63;;;11.23;;
29724;SDS011;16636;48.394;15.468;2022-12-18T16:35:24;35.08;;;12.90;;
29724;SDS011;16636;48.394;15.468;2022-12-18T16:37:50;38.90;;;13.07;;
29724;SDS011;16636;48.394;15.468;2022-12-18T16:40:17;32.97;;;12.63;;
29724;SDS011;16636;48.394;15.468;2022-12-18T16:42:44;43.90;;;14.85;;
29724;SDS011;16636;48.394;15.468;2022-12-18T16:45:12;32.40;;;12.90;;